sensor_id;sensor_type;location;lat;lon;timestamp;pressure;altitude;pressure_sealevel;temperature;humidity
61474;BME280;53694;49.784;30.150;2022-09-02T00:00:42;99995.51;;;11.16;69.05
61474;BME280;53694;49.784;30.150;2022-09-02T00:01:45;99987.63;;;11.14;68.92
61474;BME280;53694;49.784;30.150;2022-09-02T00:02:48;99998.16;;;11.12;68.79
61474;BME280;53694;49.784;30.150;2022-09-02T00:03:51;99995.36;;;11.09;68.66
61474;BME280;53694;49.784;30.150;2022-09-02T00:04:54;99993.64;;;11.04;68.46
61474;BME280;53694;49.784;30.150;2022-09-02T00:05:56;99989.22;;;10.99;68.71
61474;BME280;53694;49.784;30.150;2022-09-02T00:06:58;99993.03;;;10.95;69.04
61474;BME280;53694;49.784;30.150;2022-09-02T00:08:00;99985.52;;;10.92;68.96
61474;BME280;53694;49.784;30.150;2022-09-02T00:09:05;99988.61;;;10.90;69.08
61474;BME280;53694;49.784;30.150;2022-09-02T00:10:07;99999.16;;;10.88;69.24
61474;BME280;53694;49.784;30.150;2022-09-02T00:11:15;100005.36;;;10.85;69.10
61474;BME280;53694;49.784;30.150;2022-09-02T00:12:17;100000.56;;;10.82;69.04
61474;BME280;53694;49.784;30.150;2022-09-02T00:13:19;100004.04;;;10.79;68.97
61474;BME280;53694;49.784;30.150;2022-09-02T00:14:27;100005.90;;;10.75;68.65
61474;BME280;53694;49.784;30.150;2022-09-02T00:15:26;100006.95;;;10.70;68.68
61474;BME280;53694;49.784;30.150;2022-09-02T00:16:29;100010.73;;;10.66;68.76
61474;BME280;53694;49.784;30.150;2022-09-02T00:17:31;100005.51;;;10.61;68.79
61474;BME280;53694;49.784;30.150;2022-09-02T00:18:32;100009.41;;;10.60;68.88
61474;BME280;53694;49.784;30.150;2022-09-02T00:19:34;100005.08;;;10.59;68.92
61474;BME280;53694;49.784;30.150;2022-09-02T00:20:36;100008.98;;;10.58;68.86
61474;BME280;53694;49.784;30.150;2022-09-02T00:21:38;100008.16;;;10.57;68.66
61474;BME280;53694;49.784;30.150;2022-09-02T00:22:39;100012.42;;;10.55;68.49
61474;BME280;53694;49.784;30.150;2022-09-02T00:23:42;100015.06;;;10.51;68.61
61474;BME280;53694;49.784;30.150;2022-09-02T00:24:44;100012.69;;;10.49;68.76
61474;BME280;53694;49.784;30.150;2022-09-02T00:25:46;100010.17;;;10.44;68.87
61474;BME280;53694;49.784;30.150;2022-09-02T00:26:47;100017.17;;;10.42;68.96
61474;BME280;53694;49.784;30.150;2022-09-02T00:27:49;100015.59;;;10.41;68.94
61474;BME280;53694;49.784;30.150;2022-09-02T00:28:51;100012.38;;;10.39;69.05
61474;BME280;53694;49.784;30.150;2022-09-02T00:29:52;100013.53;;;10.38;69.22
61474;BME280;53694;49.784;30.150;2022-09-02T00:30:54;100010.33;;;10.36;69.36
61474;BME280;53694;49.784;30.150;2022-09-02T00:31:56;100011.38;;;10.31;69.56
61474;BME280;53694;49.784;30.150;2022-09-02T00:32:58;100019.97;;;10.30;69.63
61474;BME280;53694;49.784;30.150;2022-09-02T00:34:00;100013.22;;;10.27;69.46
61474;BME280;53694;49.784;30.150;2022-09-02T00:35:02;100011.17;;;10.24;69.31
61474;BME280;53694;49.784;30.150;2022-09-02T00:36:04;100012.66;;;10.21;69.31
61474;BME280;53694;49.784;30.150;2022-09-02T00:37:06;100011.75;;;10.17;69.62
61474;BME280;53694;49.784;30.150;2022-09-02T00:38:08;100013.23;;;10.15;69.78
61474;BME280;53694;49.784;30.150;2022-09-02T00:39:10;100013.16;;;10.11;69.90
61474;BME280;53694;49.784;30.150;2022-09-02T00:40:12;100013.85;;;10.08;70.12
61474;BME280;53694;49.784;30.150;2022-09-02T00:41:14;100018.08;;;10.06;70.42
61474;BME280;53694;49.784;30.150;2022-09-02T00:42:17;100011.00;;;10.05;70.47
61474;BME280;53694;49.784;30.150;2022-09-02T00:43:24;100015.44;;;10.09;70.27
61474;BME280;53694;49.784;30.150;2022-09-02T00:44:26;100011.27;;;10.28;69.88
61474;BME280;53694;49.784;30.150;2022-09-02T00:45:28;100014.11;;;10.59;69.20
61474;BME280;53694;49.784;30.150;2022-09-02T00:46:31;100009.88;;;10.93;68.23
61474;BME280;53694;49.784;30.150;2022-09-02T00:47:34;100015.73;;;11.23;67.32
61474;BME280;53694;49.784;30.150;2022-09-02T00:48:39;100020.42;;;11.39;66.40
61474;BME280;53694;49.784;30.150;2022-09-02T00:49:44;100022.09;;;11.43;65.96
61474;BME280;53694;49.784;30.150;2022-09-02T00:50:46;100012.51;;;11.37;65.75
61474;BME280;53694;49.784;30.150;2022-09-02T00:52:03;100015.02;;;11.26;66.02
61474;BME280;53694;49.784;30.150;2022-09-02T00:53:07;100015.91;;;11.15;66.29
61474;BME280;53694;49.784;30.150;2022-09-02T00:54:10;100020.24;;;11.00;66.65
61474;BME280;53694;49.784;30.150;2022-09-02T00:55:21;100021.84;;;10.85;67.14
61474;BME280;53694;49.784;30.150;2022-09-02T00:56:26;100029.00;;;10.74;67.46
61474;BME280;53694;49.784;30.150;2022-09-02T00:57:31;100017.22;;;10.58;67.89
61474;BME280;53694;49.784;30.150;2022-09-02T00:58:34;100024.80;;;10.48;68.29
61474;BME280;53694;49.784;30.150;2022-09-02T00:59:47;100021.88;;;10.41;68.61
61474;BME280;53694;49.784;30.150;2022-09-02T01:00:50;100020.08;;;10.33;68.83
61474;BME280;53694;49.784;30.150;2022-09-02T01:01:53;100017.78;;;10.23;69.29
61474;BME280;53694;49.784;30.150;2022-09-02T01:02:58;100025.12;;;10.19;69.41
61474;BME280;53694;49.784;30.150;2022-09-02T01:04:00;100023.78;;;10.13;69.46
61474;BME280;53694;49.784;30.150;2022-09-02T01:05:04;100024.03;;;10.08;69.68
61474;BME280;53694;49.784;30.150;2022-09-02T01:06:08;100024.72;;;10.05;69.70
61474;BME280;53694;49.784;30.150;2022-09-02T01:07:11;100025.41;;;10.01;69.84
61474;BME280;53694;49.784;30.150;2022-09-02T01:08:16;100032.73;;;9.97;69.86
61474;BME280;53694;49.784;30.150;2022-09-02T01:09:18;100023.27;;;9.95;69.96
61474;BME280;53694;49.784;30.150;2022-09-02T01:10:23;100029.09;;;9.93;70.28
61474;BME280;53694;49.784;30.150;2022-09-02T01:11:35;100034.50;;;9.90;70.32
61474;BME280;53694;49.784;30.150;2022-09-02T01:12:34;100029.34;;;9.88;70.62
61474;BME280;53694;49.784;30.150;2022-09-02T01:13:39;100030.79;;;9.98;70.79
61474;BME280;53694;49.784;30.150;2022-09-02T01:14:41;100026.73;;;10.20;70.48
61474;BME280;53694;49.784;30.150;2022-09-02T01:15:47;100024.63;;;10.57;69.85
61474;BME280;53694;49.784;30.150;2022-09-02T01:16:52;100026.10;;;10.98;68.49
61474;BME280;53694;49.784;30.150;2022-09-02T01:17:54;100018.09;;;11.41;67.45
61474;BME280;53694;49.784;30.150;2022-09-02T01:18:58;100017.30;;;11.75;66.05
61474;BME280;53694;49.784;30.150;2022-09-02T01:20:09;100022.08;;;11.94;65.20
61474;BME280;53694;49.784;30.150;2022-09-02T01:21:11;100017.45;;;11.98;64.67
61474;BME280;53694;49.784;30.150;2022-09-02T01:22:16;100018.45;;;11.90;64.48
61474;BME280;53694;49.784;30.150;2022-09-02T01:23:18;100029.19;;;11.80;64.76
61474;BME280;53694;49.784;30.150;2022-09-02T01:24:22;100021.84;;;11.68;64.71
61474;BME280;53694;49.784;30.150;2022-09-02T01:25:27;100023.13;;;11.55;65.14
61474;BME280;53694;49.784;30.150;2022-09-02T01:26:29;100031.48;;;11.42;65.37
61474;BME280;53694;49.784;30.150;2022-09-02T01:27:30;100024.49;;;11.29;65.74
61474;BME280;53694;49.784;30.150;2022-09-02T01:28:33;100025.75;;;11.16;66.01
61474;BME280;53694;49.784;30.150;2022-09-02T01:29:34;100028.58;;;11.04;66.27
61474;BME280;53694;49.784;30.150;2022-09-02T01:30:39;100024.78;;;10.92;66.59
61474;BME280;53694;49.784;30.150;2022-09-02T01:31:41;100026.09;;;10.83;66.88
61474;BME280;53694;49.784;30.150;2022-09-02T01:32:43;100034.50;;;10.74;67.25
61474;BME280;53694;49.784;30.150;2022-09-02T01:33:44;100037.08;;;10.67;67.41
61474;BME280;53694;49.784;30.150;2022-09-02T01:34:46;100035.28;;;10.59;67.38
61474;BME280;53694;49.784;30.150;2022-09-02T01:35:48;100039.42;;;10.53;67.98
61474;BME280;53694;49.784;30.150;2022-09-02T01:36:50;100033.39;;;10.47;68.12
61474;BME280;53694;49.784;30.150;2022-09-02T01:37:54;100036.50;;;10.45;68.17
61474;BME280;53694;49.784;30.150;2022-09-02T01:38:56;100048.07;;;10.39;68.03
61474;BME280;53694;49.784;30.150;2022-09-02T01:39:58;100043.16;;;10.32;68.10
61474;BME280;53694;49.784;30.150;2022-09-02T01:41:00;100047.98;;;10.23;68.40
61474;BME280;53694;49.784;30.150;2022-09-02T01:42:02;100047.08;;;10.19;68.60
61474;BME280;53694;49.784;30.150;2022-09-02T01:43:07;100050.07;;;10.14;69.01
61474;BME280;53694;49.784;30.150;2022-09-02T01:44:09;100056.61;;;10.09;69.38
61474;BME280;53694;49.784;30.150;2022-09-02T01:45:11;100047.58;;;10.09;70.00
61474;BME280;53694;49.784;30.150;2022-09-02T01:46:14;100052.59;;;10.07;70.38
61474;BME280;53694;49.784;30.150;2022-09-02T01:47:19;100052.16;;;10.05;70.59
61474;BME280;53694;49.784;30.150;2022-09-02T01:48:21;100051.01;;;10.06;70.81
61474;BME280;53694;49.784;30.150;2022-09-02T01:49:23;100059.10;;;10.14;70.86
61474;BME280;53694;49.784;30.150;2022-09-02T01:50:25;100058.95;;;10.35;70.70
61474;BME280;53694;49.784;30.150;2022-09-02T01:51:27;100060.64;;;10.68;70.14
61474;BME280;53694;49.784;30.150;2022-09-02T01:52:28;100059.70;;;11.08;69.01
61474;BME280;53694;49.784;30.150;2022-09-02T01:53:30;100054.45;;;11.50;67.66
61474;BME280;53694;49.784;30.150;2022-09-02T01:54:32;100057.06;;;11.94;66.16
61474;BME280;53694;49.784;30.150;2022-09-02T01:55:34;100054.26;;;12.29;65.06
61474;BME280;53694;49.784;30.150;2022-09-02T01:56:37;100053.09;;;12.49;64.27
61474;BME280;53694;49.784;30.150;2022-09-02T01:57:38;100062.23;;;12.54;63.91
61474;BME280;53694;49.784;30.150;2022-09-02T01:58:40;100054.98;;;12.45;63.83
61474;BME280;53694;49.784;30.150;2022-09-02T01:59:42;100060.19;;;12.31;63.96
61474;BME280;53694;49.784;30.150;2022-09-02T02:00:45;100062.95;;;12.12;64.29
61474;BME280;53694;49.784;30.150;2022-09-02T02:01:47;100052.27;;;11.91;64.75
61474;BME280;53694;49.784;30.150;2022-09-02T02:02:49;100054.95;;;11.71;65.31
61474;BME280;53694;49.784;30.150;2022-09-02T02:03:51;100051.79;;;11.54;65.86
61474;BME280;53694;49.784;30.150;2022-09-02T02:04:53;100055.71;;;11.37;66.35
61474;BME280;53694;49.784;30.150;2022-09-02T02:05:54;100062.37;;;11.20;66.90
61474;BME280;53694;49.784;30.150;2022-09-02T02:06:56;100071.42;;;11.05;67.46
61474;BME280;53694;49.784;30.150;2022-09-02T02:07:58;100068.29;;;10.90;68.21
61474;BME280;53694;49.784;30.150;2022-09-02T02:09:00;100062.86;;;10.78;68.54
61474;BME280;53694;49.784;30.150;2022-09-02T02:10:03;100062.23;;;10.69;69.06
61474;BME280;53694;49.784;30.150;2022-09-02T02:11:05;100061.59;;;10.60;69.37
61474;BME280;53694;49.784;30.150;2022-09-02T02:12:08;100055.09;;;10.52;69.55
61474;BME280;53694;49.784;30.150;2022-09-02T02:13:09;100058.00;;;10.43;69.76
61474;BME280;53694;49.784;30.150;2022-09-02T02:14:11;100062.48;;;10.36;70.04
61474;BME280;53694;49.784;30.150;2022-09-02T02:15:15;100059.89;;;10.27;70.46
61474;BME280;53694;49.784;30.150;2022-09-02T02:16:18;100071.09;;;10.22;70.92
61474;BME280;53694;49.784;30.150;2022-09-02T02:17:19;100061.70;;;10.23;71.04
61474;BME280;53694;49.784;30.150;2022-09-02T02:18:21;100065.80;;;10.41;70.60
61474;BME280;53694;49.784;30.150;2022-09-02T02:19:23;100065.88;;;10.73;69.83
61474;BME280;53694;49.784;30.150;2022-09-02T02:20:25;100073.17;;;11.13;68.72
61474;BME280;53694;49.784;30.150;2022-09-02T02:21:27;100073.42;;;11.55;67.58
61474;BME280;53694;49.784;30.150;2022-09-02T02:22:29;100069.12;;;11.89;66.64
61474;BME280;53694;49.784;30.150;2022-09-02T02:23:31;100072.30;;;12.07;65.70
61474;BME280;53694;49.784;30.150;2022-09-02T02:24:32;100070.67;;;12.06;65.39
61474;BME280;53694;49.784;30.150;2022-09-02T02:25:34;100065.66;;;11.92;65.49
61474;BME280;53694;49.784;30.150;2022-09-02T02:26:36;100074.74;;;11.77;66.12
61474;BME280;53694;49.784;30.150;2022-09-02T02:27:37;100071.56;;;11.59;66.49
61474;BME280;53694;49.784;30.150;2022-09-02T02:28:39;100069.64;;;11.44;66.93
61474;BME280;53694;49.784;30.150;2022-09-02T02:29:41;100075.05;;;11.24;67.10
61474;BME280;53694;49.784;30.150;2022-09-02T02:30:43;100069.80;;;11.04;67.67
61474;BME280;53694;49.784;30.150;2022-09-02T02:31:45;100082.30;;;10.85;68.40
61474;BME280;53694;49.784;30.150;2022-09-02T02:32:46;100081.02;;;10.67;68.91
61474;BME280;53694;49.784;30.150;2022-09-02T02:33:48;100069.88;;;10.47;69.52
61474;BME280;53694;49.784;30.150;2022-09-02T02:34:50;100076.47;;;10.31;70.26
61474;BME280;53694;49.784;30.150;2022-09-02T02:35:51;100081.41;;;10.13;70.72
61474;BME280;53694;49.784;30.150;2022-09-02T02:36:53;100073.89;;;9.97;71.01
61474;BME280;53694;49.784;30.150;2022-09-02T02:37:55;100069.80;;;9.91;71.15
61474;BME280;53694;49.784;30.150;2022-09-02T02:38:57;100069.31;;;10.01;70.94
61474;BME280;53694;49.784;30.150;2022-09-02T02:39:59;100082.53;;;10.24;70.31
61474;BME280;53694;49.784;30.150;2022-09-02T02:41:01;100081.18;;;10.58;69.52
61474;BME280;53694;49.784;30.150;2022-09-02T02:42:03;100083.02;;;10.98;68.12
61474;BME280;53694;49.784;30.150;2022-09-02T02:43:05;100076.91;;;11.36;66.89
61474;BME280;53694;49.784;30.150;2022-09-02T02:44:06;100083.81;;;11.62;65.70
61474;BME280;53694;49.784;30.150;2022-09-02T02:45:08;100075.45;;;11.74;65.19
61474;BME280;53694;49.784;30.150;2022-09-02T02:46:10;100072.98;;;11.69;64.55
61474;BME280;53694;49.784;30.150;2022-09-02T02:47:12;100076.55;;;11.54;64.38
61474;BME280;53694;49.784;30.150;2022-09-02T02:48:14;100071.69;;;11.31;64.58
61474;BME280;53694;49.784;30.150;2022-09-02T02:49:16;100083.31;;;11.09;65.12
61474;BME280;53694;49.784;30.150;2022-09-02T02:50:20;100079.55;;;10.85;65.64
61474;BME280;53694;49.784;30.150;2022-09-02T02:51:22;100088.27;;;10.59;66.38
61474;BME280;53694;49.784;30.150;2022-09-02T02:52:24;100084.45;;;10.36;67.08
61474;BME280;53694;49.784;30.150;2022-09-02T02:53:26;100083.91;;;10.18;67.93
61474;BME280;53694;49.784;30.150;2022-09-02T02:54:27;100088.98;;;10.04;68.42
61474;BME280;53694;49.784;30.150;2022-09-02T02:55:29;100083.88;;;9.90;68.86
61474;BME280;53694;49.784;30.150;2022-09-02T02:56:31;100081.94;;;9.78;69.45
61474;BME280;53694;49.784;30.150;2022-09-02T02:57:33;100080.80;;;9.67;69.78
61474;BME280;53694;49.784;30.150;2022-09-02T02:58:35;100088.35;;;9.58;70.06
61474;BME280;53694;49.784;30.150;2022-09-02T02:59:37;100090.41;;;9.48;70.53
61474;BME280;53694;49.784;30.150;2022-09-02T03:00:39;100094.06;;;9.40;70.75
61474;BME280;53694;49.784;30.150;2022-09-02T03:01:40;100090.84;;;9.38;71.04
61474;BME280;53694;49.784;30.150;2022-09-02T03:02:42;100088.23;;;9.54;71.09
61474;BME280;53694;49.784;30.150;2022-09-02T03:03:44;100091.08;;;9.82;70.44
61474;BME280;53694;49.784;30.150;2022-09-02T03:04:45;100097.63;;;10.18;69.80
61474;BME280;53694;49.784;30.150;2022-09-02T03:05:48;100097.66;;;10.58;68.62
61474;BME280;53694;49.784;30.150;2022-09-02T03:06:50;100102.62;;;10.96;67.46
61474;BME280;53694;49.784;30.150;2022-09-02T03:07:52;100103.80;;;11.27;66.30
61474;BME280;53694;49.784;30.150;2022-09-02T03:08:54;100101.39;;;11.41;65.53
61474;BME280;53694;49.784;30.150;2022-09-02T03:09:56;100104.41;;;11.36;65.21
61474;BME280;53694;49.784;30.150;2022-09-02T03:10:58;100111.16;;;11.23;65.56
61474;BME280;53694;49.784;30.150;2022-09-02T03:12:00;100104.84;;;11.07;65.99
61474;BME280;53694;49.784;30.150;2022-09-02T03:13:02;100105.86;;;10.86;66.22
61474;BME280;53694;49.784;30.150;2022-09-02T03:14:04;100107.70;;;10.66;66.83
61474;BME280;53694;49.784;30.150;2022-09-02T03:15:07;100107.89;;;10.45;67.28
61474;BME280;53694;49.784;30.150;2022-09-02T03:16:09;100109.98;;;10.24;67.87
61474;BME280;53694;49.784;30.150;2022-09-02T03:17:11;100101.20;;;10.06;68.58
61474;BME280;53694;49.784;30.150;2022-09-02T03:18:13;100101.45;;;9.89;68.89
61474;BME280;53694;49.784;30.150;2022-09-02T03:19:14;100106.04;;;9.72;69.38
61474;BME280;53694;49.784;30.150;2022-09-02T03:20:16;100104.80;;;9.58;69.97
61474;BME280;53694;49.784;30.150;2022-09-02T03:21:18;100103.52;;;9.43;70.55
61474;BME280;53694;49.784;30.150;2022-09-02T03:22:20;100103.07;;;9.29;71.03
61474;BME280;53694;49.784;30.150;2022-09-02T03:23:22;100112.06;;;9.17;71.41
61474;BME280;53694;49.784;30.150;2022-09-02T03:24:24;100109.55;;;9.12;71.64
61474;BME280;53694;49.784;30.150;2022-09-02T03:25:27;100107.31;;;9.26;71.57
61474;BME280;53694;49.784;30.150;2022-09-02T03:26:31;100114.98;;;9.57;70.89
61474;BME280;53694;49.784;30.150;2022-09-02T03:27:33;100113.10;;;9.98;69.57
61474;BME280;53694;49.784;30.150;2022-09-02T03:28:37;100117.50;;;10.39;68.59
61474;BME280;53694;49.784;30.150;2022-09-02T03:29:39;100116.42;;;10.84;67.41
61474;BME280;53694;49.784;30.150;2022-09-02T03:30:41;100123.55;;;11.17;65.95
61474;BME280;53694;49.784;30.150;2022-09-02T03:31:43;100126.22;;;11.29;65.01
61474;BME280;53694;49.784;30.150;2022-09-02T03:32:44;100127.65;;;11.23;64.75
61474;BME280;53694;49.784;30.150;2022-09-02T03:33:46;100124.17;;;11.10;65.05
61474;BME280;53694;49.784;30.150;2022-09-02T03:34:48;100127.95;;;10.90;65.17
61474;BME280;53694;49.784;30.150;2022-09-02T03:35:49;100132.16;;;10.71;65.48
61474;BME280;53694;49.784;30.150;2022-09-02T03:36:51;100130.30;;;10.47;65.83
61474;BME280;53694;49.784;30.150;2022-09-02T03:37:54;100127.28;;;10.24;66.41
61474;BME280;53694;49.784;30.150;2022-09-02T03:38:56;100126.25;;;10.05;67.13
61474;BME280;53694;49.784;30.150;2022-09-02T03:40:01;100130.72;;;9.85;67.88
61474;BME280;53694;49.784;30.150;2022-09-02T03:41:02;100138.39;;;9.67;68.47
61474;BME280;53694;49.784;30.150;2022-09-02T03:42:05;100135.87;;;9.49;69.25
61474;BME280;53694;49.784;30.150;2022-09-02T03:43:06;100137.45;;;9.38;69.87
61474;BME280;53694;49.784;30.150;2022-09-02T03:44:09;100133.57;;;9.27;70.34
61474;BME280;53694;49.784;30.150;2022-09-02T03:45:12;100135.61;;;9.18;70.81
61474;BME280;53694;49.784;30.150;2022-09-02T03:46:16;100138.89;;;9.11;71.39
61474;BME280;53694;49.784;30.150;2022-09-02T03:47:18;100139.69;;;9.12;71.59
61474;BME280;53694;49.784;30.150;2022-09-02T03:48:20;100138.34;;;9.30;71.30
61474;BME280;53694;49.784;30.150;2022-09-02T03:49:22;100139.06;;;9.64;70.75
61474;BME280;53694;49.784;30.150;2022-09-02T03:50:27;100142.36;;;10.06;69.71
61474;BME280;53694;49.784;30.150;2022-09-02T03:51:29;100145.72;;;10.52;68.47
61474;BME280;53694;49.784;30.150;2022-09-02T03:52:30;100143.91;;;11.00;66.96
61474;BME280;53694;49.784;30.150;2022-09-02T03:53:32;100146.03;;;11.35;65.67
61474;BME280;53694;49.784;30.150;2022-09-02T03:54:34;100147.17;;;11.49;64.94
61474;BME280;53694;49.784;30.150;2022-09-02T03:55:36;100149.92;;;11.49;64.60
61474;BME280;53694;49.784;30.150;2022-09-02T03:56:39;100151.16;;;11.36;64.57
61474;BME280;53694;49.784;30.150;2022-09-02T03:57:40;100144.84;;;11.20;64.90
61474;BME280;53694;49.784;30.150;2022-09-02T03:58:43;100145.86;;;10.99;65.43
61474;BME280;53694;49.784;30.150;2022-09-02T03:59:45;100143.43;;;10.82;66.23
61474;BME280;53694;49.784;30.150;2022-09-02T04:00:53;100146.48;;;10.65;66.88
61474;BME280;53694;49.784;30.150;2022-09-02T04:01:55;100141.28;;;10.47;67.57
61474;BME280;53694;49.784;30.150;2022-09-02T04:02:57;100141.67;;;10.34;68.21
61474;BME280;53694;49.784;30.150;2022-09-02T04:03:59;100142.81;;;10.20;68.81
61474;BME280;53694;49.784;30.150;2022-09-02T04:05:00;100145.69;;;10.12;69.63
61474;BME280;53694;49.784;30.150;2022-09-02T04:06:02;100139.97;;;10.05;70.07
61474;BME280;53694;49.784;30.150;2022-09-02T04:07:04;100143.28;;;9.98;70.21
61474;BME280;53694;49.784;30.150;2022-09-02T04:08:06;100149.36;;;9.91;69.88
61474;BME280;53694;49.784;30.150;2022-09-02T04:09:07;100141.58;;;9.93;70.11
61474;BME280;53694;49.784;30.150;2022-09-02T04:10:10;100152.77;;;10.13;70.24
61474;BME280;53694;49.784;30.150;2022-09-02T04:11:15;100152.04;;;10.40;69.64
61474;BME280;53694;49.784;30.150;2022-09-02T04:12:17;100148.89;;;10.66;69.00
61474;BME280;53694;49.784;30.150;2022-09-02T04:13:18;100152.26;;;11.04;68.30
61474;BME280;53694;49.784;30.150;2022-09-02T04:14:20;100161.73;;;11.34;67.04
61474;BME280;53694;49.784;30.150;2022-09-02T04:15:22;100155.88;;;11.51;66.30
61474;BME280;53694;49.784;30.150;2022-09-02T04:16:24;100167.77;;;11.56;65.85
61474;BME280;53694;49.784;30.150;2022-09-02T04:17:26;100162.52;;;11.50;65.80
61474;BME280;53694;49.784;30.150;2022-09-02T04:18:29;100169.71;;;11.39;65.56
61474;BME280;53694;49.784;30.150;2022-09-02T04:19:30;100170.48;;;11.24;65.66
61474;BME280;53694;49.784;30.150;2022-09-02T04:20:32;100166.46;;;11.06;66.11
61474;BME280;53694;49.784;30.150;2022-09-02T04:21:36;100163.56;;;10.86;66.67
61474;BME280;53694;49.784;30.150;2022-09-02T04:22:38;100173.70;;;10.70;67.32
61474;BME280;53694;49.784;30.150;2022-09-02T04:23:40;100172.86;;;10.54;67.86
61474;BME280;53694;49.784;30.150;2022-09-02T04:24:42;100170.58;;;10.43;68.23
61474;BME280;53694;49.784;30.150;2022-09-02T04:25:44;100171.51;;;10.35;68.59
61474;BME280;53694;49.784;30.150;2022-09-02T04:26:45;100176.80;;;10.28;68.95
61474;BME280;53694;49.784;30.150;2022-09-02T04:27:47;100177.70;;;10.20;69.39
61474;BME280;53694;49.784;30.150;2022-09-02T04:28:50;100173.93;;;10.12;69.81
61474;BME280;53694;49.784;30.150;2022-09-02T04:29:51;100179.19;;;10.05;70.25
61474;BME280;53694;49.784;30.150;2022-09-02T04:30:53;100172.67;;;9.97;70.85
61474;BME280;53694;49.784;30.150;2022-09-02T04:31:55;100171.31;;;9.91;71.24
61474;BME280;53694;49.784;30.150;2022-09-02T04:32:56;100179.78;;;9.98;71.62
61474;BME280;53694;49.784;30.150;2022-09-02T04:33:58;100170.38;;;10.24;71.68
61474;BME280;53694;49.784;30.150;2022-09-02T04:35:00;100182.66;;;10.67;70.91
61474;BME280;53694;49.784;30.150;2022-09-02T04:36:07;100181.64;;;11.15;69.55
61474;BME280;53694;49.784;30.150;2022-09-02T04:37:09;100186.92;;;11.68;68.40
61474;BME280;53694;49.784;30.150;2022-09-02T04:38:11;100187.61;;;12.28;66.87
61474;BME280;53694;49.784;30.150;2022-09-02T04:39:13;100183.73;;;12.68;65.17
61474;BME280;53694;49.784;30.150;2022-09-02T04:40:15;100181.00;;;12.87;64.07
61474;BME280;53694;49.784;30.150;2022-09-02T04:41:19;100177.08;;;12.88;63.21
61474;BME280;53694;49.784;30.150;2022-09-02T04:42:21;100184.69;;;12.75;62.52
61474;BME280;53694;49.784;30.150;2022-09-02T04:43:23;100179.95;;;12.57;62.78
61474;BME280;53694;49.784;30.150;2022-09-02T04:44:24;100182.24;;;12.35;63.32
61474;BME280;53694;49.784;30.150;2022-09-02T04:45:26;100185.77;;;12.16;63.76
61474;BME280;53694;49.784;30.150;2022-09-02T04:46:28;100181.72;;;11.94;63.89
61474;BME280;53694;49.784;30.150;2022-09-02T04:47:29;100181.17;;;11.73;64.28
61474;BME280;53694;49.784;30.150;2022-09-02T04:48:31;100181.06;;;11.54;65.05
61474;BME280;53694;49.784;30.150;2022-09-02T04:49:33;100188.50;;;11.37;65.57
61474;BME280;53694;49.784;30.150;2022-09-02T04:50:37;100185.81;;;11.25;66.05
61474;BME280;53694;49.784;30.150;2022-09-02T04:51:39;100196.64;;;11.18;66.30
61474;BME280;53694;49.784;30.150;2022-09-02T04:52:41;100189.78;;;11.12;66.66
61474;BME280;53694;49.784;30.150;2022-09-02T04:53:43;100192.43;;;11.08;66.82
61474;BME280;53694;49.784;30.150;2022-09-02T04:54:46;100191.53;;;11.04;66.86
61474;BME280;53694;49.784;30.150;2022-09-02T04:55:48;100189.84;;;10.99;67.07
61474;BME280;53694;49.784;30.150;2022-09-02T04:56:49;100192.84;;;10.94;67.40
61474;BME280;53694;49.784;30.150;2022-09-02T04:57:51;100192.41;;;10.92;67.81
61474;BME280;53694;49.784;30.150;2022-09-02T04:58:54;100195.48;;;10.91;68.21
61474;BME280;53694;49.784;30.150;2022-09-02T04:59:55;100190.78;;;10.91;68.65
61474;BME280;53694;49.784;30.150;2022-09-02T05:00:57;100193.53;;;10.91;68.55
61474;BME280;53694;49.784;30.150;2022-09-02T05:01:59;100197.44;;;10.90;68.62
61474;BME280;53694;49.784;30.150;2022-09-02T05:03:01;100188.40;;;10.90;68.90
61474;BME280;53694;49.784;30.150;2022-09-02T05:04:06;100193.89;;;10.90;68.97
61474;BME280;53694;49.784;30.150;2022-09-02T05:05:08;100193.09;;;10.89;69.11
61474;BME280;53694;49.784;30.150;2022-09-02T05:06:14;100197.00;;;10.88;69.23
61474;BME280;53694;49.784;30.150;2022-09-02T05:07:15;100198.12;;;10.87;69.54
61474;BME280;53694;49.784;30.150;2022-09-02T05:08:17;100198.12;;;10.87;69.66
61474;BME280;53694;49.784;30.150;2022-09-02T05:09:20;100201.23;;;10.86;69.71
61474;BME280;53694;49.784;30.150;2022-09-02T05:10:23;100202.03;;;10.86;69.78
61474;BME280;53694;49.784;30.150;2022-09-02T05:11:26;100198.12;;;10.87;69.97
61474;BME280;53694;49.784;30.150;2022-09-02T05:12:28;100197.44;;;10.90;70.03
61474;BME280;53694;49.784;30.150;2022-09-02T05:13:31;100202.24;;;10.93;69.96
61474;BME280;53694;49.784;30.150;2022-09-02T05:14:33;100196.05;;;10.96;70.07
61474;BME280;53694;49.784;30.150;2022-09-02T05:15:39;100201.14;;;11.10;69.96
61474;BME280;53694;49.784;30.150;2022-09-02T05:16:41;100197.02;;;11.32;69.50
61474;BME280;53694;49.784;30.150;2022-09-02T05:17:43;100207.97;;;11.60;69.00
61474;BME280;53694;49.784;30.150;2022-09-02T05:18:44;100198.48;;;11.89;68.09
61474;BME280;53694;49.784;30.150;2022-09-02T05:19:46;100202.91;;;12.10;67.44
61474;BME280;53694;49.784;30.150;2022-09-02T05:20:48;100202.80;;;12.22;67.04
61474;BME280;53694;49.784;30.150;2022-09-02T05:21:51;100195.42;;;12.26;66.65
61474;BME280;53694;49.784;30.150;2022-09-02T05:22:53;100197.00;;;12.27;66.41
61474;BME280;53694;49.784;30.150;2022-09-02T05:23:55;100200.92;;;12.26;66.27